Lakeland Linder Regional Airport Lakeland US
ICAO: KLAL
IATA: LAL
Category: Medium
Scheduled Services: No

Elevation: 142 ft
TransAlt. 18000 ft.

Airport Communications:
TAMPA APP/DEP:119.9
ATIS:118.025
CTAF:124.5
GND:121.4
ST PETERSBURG RDO:116
TWR:124.5
UNICOM:122.95

KLAL Zoom In..

Runways:

(A) RW 05 length 5005 ft width 150 ft
---- / hdg 49

(B) RW 09 length 8499 ft width 150 ft
ILS 110.10 / hdg 94

(C) RW 23 length 5005 ft width 150 ft
---- / hdg 229

(D) RW 27 length 8499 ft width 150 ft
---- / hdg 274

Location; KLAL
Day. 23 / Time. 21.52 Zulu
* Altimeter: 30.03
* Temperature: 24° c. 75.2°f.
* Wind from: 290° Speed 12 kn.
Dewpoint: 18° c.
Visibility: 10 Statute Miles.
Clouds: Broken 2800 ft.

KLAL 232152Z 29012KT 10SM BKN028 24/18 A3003


Wind From 290°
Speed 12 kn.

YouTube Music Video
 
jpsmedia.com for Web Design  worldairports.se 2018   terms of use